Latest Weather Observations for Cato Island

IDQ60801

Issued at 3:32 am EST Wednesday 29 July 2015 (issued every 30 minutes, with the page automatically refreshed every 10 minutes)

About weather observations | Map of weather stations | Latest weather observations for QLD | Other Formats
Station Details ID: 200601 Name: CATO ISLAND Lat: -23.25 Lon: 155.54 Height: 6.3 m
Data from the previous 72 hours. | See also: Recent months for locations in Queensland
Date/Time
EST
Temp
°C
App
Temp
°C
Dew
Point
Rel
Hum
%
Delta-T
°C
Wind Press
QNH
hPa
Press
MSL
hPa
Rain
since 9 am
mm
Dir
 
Spd
km/h
Gust
km/h
Spd
kts
Gust
kts
29/03:30am 20.8 - - - - SE 41 48 22 26 1024.2 - -
29/03:00am 20.7 - - - - SE 43 52 23 28 1024.4 1024.4 -
29/02:30am 20.8 - - - - SE 44 52 24 28 1024.6 - -
29/02:00am 20.8 - - - - SE 44 52 24 28 1024.8 1024.7 -
29/01:34am 20.3 - - - - SE 41 59 22 32 1025.0 - -
29/01:30am 20.2 - - - - SE 46 59 25 32 1025.0 - -
29/01:00am 20.9 - - - - SE 43 50 23 27 1025.1 1025.1 -
29/12:30am 20.9 - - - - ESE 44 54 24 29 1025.1 - -
29/12:00am 20.9 - - - - SE 43 50 23 27 1025.2 1025.2 -
 
Date/Time
EST
Temp
°C
App
Temp
°C
Dew
Point
Rel
Hum
%
Delta-T
°C
Wind Press
QNH
hPa
Press
MSL
hPa
Rain
since 9 am
mm
Dir
 
Spd
km/h
Gust
km/h
Spd
kts
Gust
kts
28/11:30pm 20.9 - - - - SE 43 50 23 27 1025.3 - -
28/11:00pm 21.0 - - - - SE 43 46 23 25 1025.5 1025.5 -
28/10:30pm 21.0 - - - - SE 41 56 22 30 1025.8 - -
28/10:00pm 20.9 - - - - SE 43 50 23 27 1025.9 1025.9 -
28/09:30pm 20.8 - - - - SE 46 56 25 30 1026.0 - -
28/09:00pm 20.9 - - - - SE 46 54 25 29 1025.8 1025.8 -
28/08:30pm 20.8 - - - - SE 46 54 25 29 1025.8 - -
28/08:00pm 20.8 - - - - SSE 46 56 25 30 1025.6 1025.7 -
28/07:30pm 21.0 - - - - SSE 48 57 26 31 1025.4 - -
28/07:00pm 20.7 - - - - SSE 48 57 26 31 1025.0 1025.1 -
28/06:30pm 20.8 - - - - SSE 48 56 26 30 1024.6 - -
28/06:00pm 20.7 - - - - SSE 48 57 26 31 1024.4 1024.3 -
28/05:30pm 21.0 - - - - SE 46 59 25 32 1024.0 - -
28/05:00pm 21.1 - - - - SE 44 54 24 29 1023.9 1023.9 -
28/04:30pm 21.3 - - - - SE 46 54 25 29 1023.7 - -
28/04:00pm 21.1 - - - - SE 46 59 25 32 1023.5 1023.5 -
28/03:30pm 21.2 - - - - SSE 48 57 26 31 1023.1 - -
28/03:00pm 21.1 - - - - SSE 48 56 26 30 1023.1 1023.1 -
28/02:30pm 21.1 - - - - SE 48 57 26 31 1022.9 - -
28/02:00pm 21.3 - - - - SSE 48 57 26 31 1022.8 1022.9 -
28/01:30pm 21.2 - - - - SE 50 59 27 32 1022.9 - -
28/01:00pm 21.6 - - - - SE 46 56 25 30 1022.9 1022.8 -
28/12:30pm 21.5 - - - - SE 50 57 27 31 1023.0 - -
28/12:00pm 21.8 - - - - SE 48 56 26 30 1023.4 1023.4 -
28/11:30am 21.8 - - - - SE 48 56 26 30 1023.8 - -
28/11:00am 22.3 - - - - SE 44 50 24 27 1024.0 1024.0 -
28/10:30am 22.1 - - - - SE 44 50 24 27 1024.1 - -
28/10:00am 22.1 - - - - SE 43 50 23 27 1024.2 1024.2 -
28/09:30am 22.1 - - - - SE 37 44 20 24 1024.2 - -
28/09:00am 22.4 - - - - SE 39 44 21 24 1024.1 1024.1 -
28/08:30am 22.1 - - - - SE 41 46 22 25 1024.0 - -
28/08:00am 22.0 - - - - SE 39 44 21 24 1023.8 1023.8 -
28/07:30am 22.0 - - - - SE 35 41 19 22 1023.6 - -
28/07:00am 21.9 - - - - SE 33 39 18 21 1023.5 1023.5 -
28/06:30am 21.8 - - - - SE 33 39 18 21 1023.3 - -
28/06:00am 21.9 - - - - SE 32 37 17 20 1023.0 1023.0 -
28/05:30am 21.7 - - - - SE 30 33 16 18 1022.6 - -
28/05:00am 21.5 - - - - SSE 32 35 17 19 1022.6 1022.6 -
28/04:30am 21.5 - - - - SSE 32 37 17 20 1022.4 - -
28/04:00am 21.6 - - - - SSE 32 37 17 20 1022.4 1022.4 -
28/03:30am 21.5 - - - - SSE 32 35 17 19 1022.4 - -
28/03:00am 21.4 - - - - SSE 30 35 16 19 1022.5 1022.5 -
28/02:30am 21.5 - - - - SSE 30 33 16 18 1022.6 - -
28/02:00am 21.5 - - - - SSE 32 35 17 19 1022.4 1022.4 -
28/01:30am 21.6 - - - - SSE 33 37 18 20 1022.4 - -
28/01:00am 21.7 - - - - SSE 30 35 16 19 1022.4 1022.4 -
28/12:30am 21.9 - - - - SSE 32 35 17 19 1022.5 - -
28/12:00am 21.7 - - - - SSE 32 37 17 20 1022.5 1022.5 -
 
Date/Time
EST
Temp
°C
App
Temp
°C
Dew
Point
Rel
Hum
%
Delta-T
°C
Wind Press
QNH
hPa
Press
MSL
hPa
Rain
since 9 am
mm
Dir
 
Spd
km/h
Gust
km/h
Spd
kts
Gust
kts
27/11:30pm 22.1 - - - - S 28 33 15 18 1022.6 - -
27/11:00pm 22.0 - - - - SSE 30 35 16 19 1022.7 1022.7 -
27/10:30pm 22.1 - - - - SSE 32 35 17 19 1022.8 - -
27/10:00pm 22.2 - - - - SSE 30 35 16 19 1022.8 1022.8 -
27/09:30pm 22.2 - - - - SSE 28 32 15 17 1022.8 - -
27/09:00pm 22.1 - - - - SSE 28 32 15 17 1022.8 1022.8 -
27/08:30pm 22.3 - - - - SSE 33 39 18 21 1022.6 - -
27/08:00pm 22.1 - - - - SSE 33 37 18 20 1022.4 1022.4 -
27/07:30pm 22.2 - - - - SSE 37 43 20 23 1022.2 - -
27/07:00pm 22.2 - - - - SSE 39 44 21 24 1021.9 1022.0 -
27/06:30pm 22.3 - - - - SSE 37 43 20 23 1021.5 - -
27/06:00pm 22.5 - - - - SSE 37 41 20 22 1021.1 1021.1 -
27/05:30pm 22.6 - - - - SSE 35 41 19 22 1020.8 - -
27/05:00pm 22.6 - - - - S 37 41 20 22 1020.4 1020.4 -
27/04:30pm 22.6 - - - - S 37 41 20 22 1020.0 - -
27/04:00pm 22.7 - - - - S 39 43 21 23 1019.8 1019.8 -
27/03:30pm 24.1 - - - - NE 20 26 11 14 1019.8 - -
27/03:00pm 24.5 - - - - NE 17 20 9 11 1019.7 1019.7 -
27/02:30pm 24.6 - - - - NE 17 19 9 10 1019.7 - -
27/02:00pm 25.0 - - - - NE 17 20 9 11 1020.0 1019.9 -
27/01:30pm 24.8 - - - - NE 19 20 10 11 1020.2 - -
27/01:00pm 25.0 - - - - NE 15 19 8 10 1020.4 1020.4 -
27/12:30pm 24.8 - - - - NE 13 17 7 9 1020.9 - -
27/12:00pm 25.2 - - - - NE 13 17 7 9 1021.4 1021.4 -
27/11:30am 24.4 - - - - NE 11 15 6 8 1021.7 - -
27/11:00am 24.8 - - - - NE 11 13 6 7 1022.1 1022.1 -
27/10:30am 24.6 - - - - NE 9 13 5 7 1022.5 - -
27/10:00am 24.6 - - - - NE 11 13 6 7 1022.8 1022.8 -
27/09:30am 24.4 - - - - NE 9 13 5 7 1023.2 - -
27/09:00am 24.2 - - - - NE 7 11 4 6 1023.4 1023.4 -
27/08:30am 23.4 - - - - NE 9 11 5 6 1023.3 - -
27/08:00am 23.1 - - - - NE 9 11 5 6 1023.0 1023.0 -
27/07:30am 22.7 - - - - NE 9 11 5 6 1022.7 - -
27/07:00am 21.9 - - - - CALM 0 6 0 3 1022.7 1022.7 -
27/06:30am 21.2 - - - - CALM 0 6 0 3 1022.6 - -
27/06:00am 22.0 - - - - NE 13 15 7 8 1021.9 1022.0 -
27/05:30am 22.0 - - - - NE 7 19 4 10 1021.6 - -
27/05:00am 22.0 - - - - NE 6 19 3 10 1021.4 1021.4 -
27/04:30am 21.8 - - - - NE 2 6 1 3 1021.2 - -
27/04:00am 21.9 - - - - NE 2 6 1 3 1021.2 1021.2 -
27/03:30am 21.9 - - - - CALM 0 6 0 3 1021.3 - -
27/03:00am 21.9 - - - - CALM 0 4 0 2 1021.6 1021.6 -
27/02:30am 21.8 - - - - CALM 0 4 0 2 1021.5 - -
27/02:00am 21.9 - - - - NE 2 6 1 3 1021.6 1021.6 -
27/01:30am 21.9 - - - - CALM 0 6 0 3 1021.6 - -
27/01:00am 21.9 - - - - CALM 0 4 0 2 1021.7 1021.7 -
27/12:30am 21.9 - - - - CALM 0 4 0 2 1021.9 - -
27/12:00am 21.9 - - - - CALM 0 2 0 1 1021.8 1021.8 -
 
Date/Time
EST
Temp
°C
App
Temp
°C
Dew
Point
Rel
Hum
%
Delta-T
°C
Wind Press
QNH
hPa
Press
MSL
hPa
Rain
since 9 am
mm
Dir
 
Spd
km/h
Gust
km/h
Spd
kts
Gust
kts
26/11:30pm 21.9 - - - - CALM 0 2 0 1 1021.9 - -
26/11:00pm 21.8 - - - - CALM 0 2 0 1 1022.0 1021.9 -
26/10:30pm 22.0 - - - - CALM 0 4 0 2 1022.1 - -
26/10:00pm 22.0 - - - - CALM 0 4 0 2 1022.1 1022.1 -
26/09:30pm 22.0 - - - - CALM 0 2 0 1 1022.0 - -
26/09:00pm 21.9 - - - - CALM 0 4 0 2 1021.9 1022.0 -
26/08:30pm 22.2 - - - - CALM 0 4 0 2 1021.8 - -
26/08:00pm 21.8 - - - - CALM 0 4 0 2 1021.5 1021.5 -
26/07:30pm 22.1 - - - - CALM 0 2 0 1 1021.4 - -
26/07:00pm 22.2 - - - - CALM 0 2 0 1 1021.2 1021.2 -
26/06:30pm 22.3 - - - - CALM 0 4 0 2 1020.8 - -
26/06:00pm 22.3 - - - - CALM 0 0 0 0 1020.4 1020.4 -
26/05:30pm 22.3 - - - - CALM 0 2 0 1 1019.9 - -
26/05:00pm 22.5 - - - - NE 7 9 4 5 1019.5 1019.5 -
26/04:30pm 22.7 - - - - NE 7 7 4 4 1019.1 - -
26/04:00pm 23.1 - - - - NE 9 11 5 6 1018.9 1018.9 -
26/03:30pm 23.2 - - - - CALM 0 6 0 3 1018.8 - -
26/03:00pm 23.3 - - - - CALM 0 4 0 2 1018.7 1018.7 -
26/02:30pm 23.4 - - - - CALM 0 6 0 3 1018.8 - -
26/02:00pm 24.0 - - - - CALM 0 0 0 0 1019.0 1018.9 -
26/01:30pm 24.1 - - - - CALM 0 4 0 2 1019.3 - -
26/01:00pm 24.7 - - - - N 6 7 3 4 1019.8 1019.8 -
26/12:30pm 24.4 - - - - CALM 0 6 0 3 1020.0 - -
26/12:00pm 23.8 - - - - CALM 0 6 0 3 1020.5 1020.5 -
26/11:30am 23.6 - - - - N 4 7 2 4 1021.0 - -
26/11:00am 24.2 - - - - N 6 15 3 8 1021.5 1021.5 -
26/10:30am 23.9 - - - - N 4 7 2 4 1021.8 - -
26/10:00am 24.1 - - - - N 6 11 3 6 1022.3 1022.3 -
26/09:30am 24.4 - - - - N 6 7 3 4 1022.5 - -
26/09:00am 24.3 - - - - N 7 9 4 5 1022.5 1022.5 -
26/08:30am 24.0 - - - - N 9 11 5 6 1022.4 - -
26/08:00am 23.4 - - - - N 6 11 3 6 1022.3 1022.3 -
26/07:30am 22.9 - - - - CALM 0 4 0 2 1022.2 - -
26/07:00am 22.2 - - - - CALM 0 4 0 2 1021.9 1022.0 -
26/06:30am 21.6 - - - - CALM 0 0 0 0 1021.7 - -
26/06:00am 21.6 - - - - N 4 11 2 6 1021.4 1021.4 -
26/05:30am 21.6 - - - - CALM 0 2 0 1 1021.6 - -
26/05:00am 21.7 - - - - CALM 0 4 0 2 1021.3 1021.3 -
26/04:30am 21.7 - - - - CALM 0 4 0 2 1021.1 - -
26/04:00am 21.9 - - - - CALM 0 2 0 1 1020.8 1020.8 -

Other Formats:

Comma delimited format used in spreadsheet applications
http://www.bom.gov.au/fwo/IDQ60801/IDQ60801.94394.axf

JavaScript Object Notation format (JSON) in row-major order
http://www.bom.gov.au/fwo/IDQ60801/IDQ60801.94394.json